createdAt,value
2023-01-01T00:01:20.000Z,17.4
2023-01-01T00:02:37.000Z,17.4
2023-01-01T00:03:54.000Z,17.4
2023-01-01T00:05:25.000Z,17.5
2023-01-01T00:08:26.000Z,17.5
2023-01-01T00:09:56.000Z,17.4
2023-01-01T00:12:57.000Z,17.5
2023-01-01T00:14:28.000Z,17.5
2023-01-01T00:15:58.000Z,17.4
2023-01-01T00:18:46.000Z,17.5
2023-01-01T00:20:03.000Z,17.6
2023-01-01T00:21:33.000Z,17.6
2023-01-01T00:23:04.000Z,17.6
2023-01-01T00:24:34.000Z,17.5
2023-01-01T00:27:35.000Z,17.6
2023-01-01T00:29:06.000Z,17.5
2023-01-01T00:30:36.000Z,17.5
2023-01-01T00:32:07.000Z,17.4
2023-01-01T00:33:37.000Z,17.4
2023-01-01T00:34:54.000Z,17.4
2023-01-01T00:36:11.000Z,17.5
2023-01-01T00:37:42.000Z,17.5
2023-01-01T00:39:12.000Z,17.6
2023-01-01T00:40:43.000Z,17.6
2023-01-01T00:42:13.000Z,17.6
2023-01-01T00:45:14.000Z,17.7
2023-01-01T00:46:45.000Z,17.7
2023-01-01T00:48:15.000Z,17.6
2023-01-01T00:49:46.000Z,17.6
2023-01-01T00:52:20.000Z,17.6
2023-01-01T00:53:50.000Z,17.5
2023-01-01T00:55:21.000Z,17.4
2023-01-01T00:56:51.000Z,17.4
2023-01-01T00:58:22.000Z,17.5
2023-01-01T00:59:52.000Z,17.5
2023-01-01T01:01:23.000Z,17.5
2023-01-01T01:02:53.000Z,17.4
2023-01-01T01:04:24.000Z,17.4
2023-01-01T01:05:54.000Z,17.4
2023-01-01T01:07:11.000Z,17.4
2023-01-01T01:08:28.000Z,17.4
2023-01-01T01:09:59.000Z,17.4
2023-01-01T01:11:29.000Z,17.5
2023-01-01T01:13:00.000Z,17.4
2023-01-01T01:14:30.000Z,17.4
2023-01-01T01:16:01.000Z,17.4
2023-01-01T01:17:31.000Z,17.4
2023-01-01T01:19:02.000Z,17.5
2023-01-01T01:20:32.000Z,17.7
2023-01-01T01:23:20.000Z,17.5
2023-01-01T01:24:37.000Z,17.5
2023-01-01T01:26:07.000Z,17.4
2023-01-01T01:29:08.000Z,17.5
2023-01-01T01:30:39.000Z,17.4
2023-01-01T01:32:09.000Z,17.4
2023-01-01T01:33:40.000Z,17.5
2023-01-01T01:36:41.000Z,17.4
2023-01-01T01:39:28.000Z,17.3
2023-01-01T01:40:45.000Z,17.3
2023-01-01T01:42:16.000Z,17.3
2023-01-01T01:45:17.000Z,17.4
2023-01-01T01:46:47.000Z,17.2
2023-01-01T01:48:18.000Z,17.2
2023-01-01T01:49:48.000Z,17.1
2023-01-01T01:51:19.000Z,17.2
2023-01-01T01:54:20.000Z,17
2023-01-01T01:55:37.000Z,17
2023-01-01T01:56:54.000Z,17
2023-01-01T01:58:24.000Z,17
2023-01-01T01:59:55.000Z,17
2023-01-01T02:01:25.000Z,17
2023-01-01T02:02:56.000Z,17
2023-01-01T02:04:26.000Z,17
2023-01-01T02:05:57.000Z,16.9
2023-01-01T02:07:27.000Z,16.8
2023-01-01T02:08:58.000Z,16.8
2023-01-01T02:10:28.000Z,16.9
2023-01-01T02:11:45.000Z,16.9
2023-01-01T02:14:33.000Z,16.8
2023-01-01T02:16:03.000Z,16.9
2023-01-01T02:17:34.000Z,16.7
2023-01-01T02:19:04.000Z,16.7
2023-01-01T02:22:05.000Z,16.8
2023-01-01T02:23:36.000Z,16.9
2023-01-01T02:25:07.000Z,16.9
2023-01-01T02:26:51.000Z,16.9
2023-01-01T02:29:06.000Z,16.8
2023-01-01T02:31:51.000Z,16.9
2023-01-01T02:34:35.000Z,17
2023-01-01T02:37:20.000Z,16.8
2023-01-01T02:42:49.000Z,16.8
2023-01-01T02:45:34.000Z,16.8
2023-01-01T02:48:19.000Z,16.7
2023-01-01T02:51:03.000Z,16.7
2023-01-01T02:53:48.000Z,16.6
2023-01-01T02:55:06.000Z,16.6
2023-01-01T02:56:32.000Z,16.6
2023-01-01T02:59:17.000Z,16.5
2023-01-01T03:02:02.000Z,16.6
2023-01-01T03:04:46.000Z,16.5
2023-01-01T03:07:31.000Z,16.6
2023-01-01T03:10:16.000Z,16.5
2023-01-01T03:13:00.000Z,16.5
2023-01-01T03:15:45.000Z,16.5
2023-01-01T03:18:30.000Z,16.4
2023-01-01T03:22:32.000Z,16.3
2023-01-01T03:23:59.000Z,16.4
2023-01-01T03:29:45.000Z,16.4
2023-01-01T03:32:29.000Z,16.3
2023-01-01T03:35:14.000Z,16.3
2023-01-01T03:38:15.000Z,16.2
2023-01-01T03:40:59.000Z,16.3
2023-01-01T03:43:44.000Z,16.2
2023-01-01T03:46:29.000Z,16
2023-01-01T03:49:13.000Z,16.1
2023-01-01T03:50:31.000Z,16
2023-01-01T03:51:58.000Z,16.1
2023-01-01T03:54:43.000Z,16.2
2023-01-01T03:57:27.000Z,16.2
2023-01-01T04:00:12.000Z,16.1
2023-01-01T04:02:57.000Z,16.1
2023-01-01T04:05:41.000Z,16.1
2023-01-01T04:08:26.000Z,16.1
2023-01-01T04:11:11.000Z,16.1
2023-01-01T04:13:55.000Z,16.1
2023-01-01T04:16:40.000Z,15.9
2023-01-01T04:17:58.000Z,16
2023-01-01T04:19:24.000Z,16
2023-01-01T04:22:09.000Z,16
2023-01-01T04:24:54.000Z,15.9
2023-01-01T04:27:38.000Z,16
2023-01-01T04:30:23.000Z,16
2023-01-01T04:33:08.000Z,16
2023-01-01T04:35:52.000Z,15.9
2023-01-01T04:38:37.000Z,16
2023-01-01T04:41:22.000Z,16
2023-01-01T04:44:23.000Z,15.9
2023-01-01T04:45:40.000Z,15.8
2023-01-01T04:47:07.000Z,15.7
2023-01-01T04:49:52.000Z,15.9
2023-01-01T04:52:37.000Z,15.9
2023-01-01T04:55:21.000Z,15.9
2023-01-01T05:00:50.000Z,15.7
2023-01-01T05:03:35.000Z,15.7
2023-01-01T05:06:20.000Z,15.8
2023-01-01T05:09:04.000Z,15.8
2023-01-01T05:11:49.000Z,15.7
2023-01-01T05:13:07.000Z,15.7
2023-01-01T05:14:34.000Z,15.7
2023-01-01T05:17:18.000Z,15.7
2023-01-01T05:20:03.000Z,15.7
2023-01-01T05:22:48.000Z,15.6
2023-01-01T05:25:32.000Z,15.6
2023-01-01T05:28:17.000Z,15.6
2023-01-01T05:31:01.000Z,15.6
2023-01-01T05:33:46.000Z,15.6
2023-01-01T05:36:31.000Z,15.6
2023-01-01T05:39:15.000Z,15.5
2023-01-01T05:40:33.000Z,15.7
2023-01-01T05:42:00.000Z,15.7
2023-01-01T05:44:45.000Z,15.6
2023-01-01T05:47:29.000Z,15.6
2023-01-01T05:50:14.000Z,15.4
2023-01-01T05:52:59.000Z,15.3
2023-01-01T05:55:43.000Z,15.2
2023-01-01T05:58:28.000Z,15.2
2023-01-01T06:01:13.000Z,15.2
2023-01-01T06:03:57.000Z,15.2
2023-01-01T06:06:42.000Z,15.2
2023-01-01T06:08:00.000Z,15.1
2023-01-01T06:09:26.000Z,15.2
2023-01-01T06:12:11.000Z,15.1
2023-01-01T06:14:56.000Z,15.1
2023-01-01T06:17:40.000Z,15.2
2023-01-01T06:20:25.000Z,15.1
2023-01-01T06:23:10.000Z,15
2023-01-01T06:31:24.000Z,15
2023-01-01T06:34:08.000Z,15
2023-01-01T06:35:26.000Z,15
2023-01-01T06:39:37.000Z,15
2023-01-01T06:42:22.000Z,15
2023-01-01T06:45:07.000Z,15
2023-01-01T06:47:51.000Z,15.2
2023-01-01T06:50:36.000Z,15.2
2023-01-01T06:53:21.000Z,15.3
2023-01-01T06:56:05.000Z,15.3
2023-01-01T06:59:06.000Z,15.4
2023-01-01T07:01:51.000Z,15.5
2023-01-01T07:03:09.000Z,15.5
2023-01-01T07:04:36.000Z,15.5
2023-01-01T07:07:20.000Z,15.4
2023-01-01T07:10:05.000Z,15.4
2023-01-01T07:12:50.000Z,15.5
2023-01-01T07:15:34.000Z,15.5
2023-01-01T07:18:19.000Z,15.5
2023-01-01T07:21:03.000Z,15.4
2023-01-01T07:23:48.000Z,15.4
2023-01-01T07:26:33.000Z,15.4
2023-01-01T07:29:17.000Z,15.4
2023-01-01T07:30:35.000Z,15.5
2023-01-01T07:32:02.000Z,15.5
2023-01-01T07:34:47.000Z,15.4
2023-01-01T07:40:16.000Z,15.4
2023-01-01T07:43:01.000Z,15
2023-01-01T07:45:45.000Z,14.6
2023-01-01T07:53:59.000Z,13.6
2023-01-01T07:56:44.000Z,13.3
2023-01-01T07:58:02.000Z,13.2
2023-01-01T07:59:28.000Z,13.1
2023-01-01T08:02:13.000Z,13
2023-01-01T08:04:58.000Z,13
2023-01-01T08:07:43.000Z,13
2023-01-01T08:10:43.000Z,13
2023-01-01T08:13:28.000Z,13.1
2023-01-01T08:16:13.000Z,13.1
2023-01-01T08:18:57.000Z,13
2023-01-01T08:21:42.000Z,12.9
2023-01-01T08:24:27.000Z,12.8
2023-01-01T08:25:44.000Z,12.7
2023-01-01T08:27:11.000Z,12.7
2023-01-01T08:29:56.000Z,12.7
2023-01-01T08:32:40.000Z,12.6
2023-01-01T08:35:25.000Z,12.6
2023-01-01T08:38:10.000Z,12.5
2023-01-01T08:43:55.000Z,12.4
2023-01-01T08:46:40.000Z,12.3
2023-01-01T08:49:25.000Z,12.3
2023-01-01T08:52:09.000Z,12.3
2023-01-01T08:53:27.000Z,12.2
2023-01-01T08:54:54.000Z,12.2
2023-01-01T08:57:39.000Z,12.2
2023-01-01T09:00:23.000Z,12.1
2023-01-01T09:03:08.000Z,12.1
2023-01-01T09:05:53.000Z,12.1
2023-01-01T09:08:37.000Z,12
2023-01-01T09:11:22.000Z,12.1
2023-01-01T09:14:06.000Z,12.1
2023-01-01T09:16:51.000Z,12
2023-01-01T09:19:36.000Z,12
2023-01-01T09:20:53.000Z,12
2023-01-01T09:22:20.000Z,12
2023-01-01T09:25:05.000Z,12
2023-01-01T09:27:50.000Z,11.9
2023-01-01T09:30:34.000Z,11.9
2023-01-01T09:33:19.000Z,11.8
2023-01-01T09:36:20.000Z,11.8
2023-01-01T09:39:05.000Z,11.8
2023-01-01T09:41:49.000Z,11.7
2023-01-01T09:44:34.000Z,11.7
2023-01-01T09:47:19.000Z,11.7
2023-01-01T09:48:36.000Z,11.7
2023-01-01T09:50:03.000Z,11.7
2023-01-01T09:52:48.000Z,11.7
2023-01-01T09:55:32.000Z,11.7
2023-01-01T09:58:17.000Z,11.7
2023-01-01T10:01:02.000Z,11.7
2023-01-01T10:03:46.000Z,11.6
2023-01-01T10:06:31.000Z,11.6
2023-01-01T10:09:16.000Z,11.6
2023-01-01T10:12:00.000Z,11.6
2023-01-01T10:14:45.000Z,11.6
2023-01-01T10:16:03.000Z,11.6
2023-01-01T10:17:30.000Z,11.6
2023-01-01T10:20:14.000Z,11.6
2023-01-01T10:22:59.000Z,11.6
2023-01-01T10:25:44.000Z,11.6
2023-01-01T10:28:28.000Z,11.6
2023-01-01T10:31:13.000Z,11.6
2023-01-01T10:33:57.000Z,11.6
2023-01-01T10:36:42.000Z,11.6
2023-01-01T10:39:27.000Z,11.6
2023-01-01T10:42:11.000Z,11.5
2023-01-01T10:43:29.000Z,11.5
2023-01-01T10:44:56.000Z,11.5
2023-01-01T10:47:41.000Z,11.5
2023-01-01T10:50:25.000Z,11.5
2023-01-01T10:53:10.000Z,11.6
2023-01-01T10:55:55.000Z,11.6
2023-01-01T10:58:39.000Z,11.6
2023-01-01T11:01:24.000Z,11.6
2023-01-01T11:04:08.000Z,11.6
2023-01-01T11:06:53.000Z,11.6
2023-01-01T11:09:38.000Z,11.7
2023-01-01T11:10:56.000Z,11.8
2023-01-01T11:12:22.000Z,11.8
2023-01-01T11:15:07.000Z,11.8
2023-01-01T11:17:52.000Z,11.9
2023-01-01T11:20:36.000Z,12
2023-01-01T11:23:21.000Z,12.1
2023-01-01T11:26:06.000Z,12.3
2023-01-01T11:28:50.000Z,12.3
2023-01-01T11:31:35.000Z,12.5
2023-01-01T11:34:20.000Z,12.8
2023-01-01T11:37:04.000Z,13
2023-01-01T11:38:22.000Z,13.1
2023-01-01T11:39:49.000Z,13.2
2023-01-01T11:42:33.000Z,13.5
2023-01-01T11:45:18.000Z,13.4
2023-01-01T11:48:03.000Z,13.3
2023-01-01T11:50:47.000Z,13.8
2023-01-01T11:53:32.000Z,13.8
2023-01-01T11:56:17.000Z,13.5
2023-01-01T11:59:01.000Z,13.2
2023-01-01T12:01:46.000Z,13.2
2023-01-01T12:04:31.000Z,13.1
2023-01-01T12:05:48.000Z,13.2
2023-01-01T12:07:15.000Z,13.2
2023-01-01T12:10:00.000Z,13.2
2023-01-01T12:12:45.000Z,13.3
2023-01-01T12:15:29.000Z,13.3
2023-01-01T12:18:14.000Z,13.4
2023-01-01T12:20:58.000Z,13.8
2023-01-01T12:23:43.000Z,14.8
2023-01-01T12:26:28.000Z,14.9
2023-01-01T12:29:12.000Z,15
2023-01-01T12:31:57.000Z,15
2023-01-01T12:33:15.000Z,14.8
2023-01-01T12:34:42.000Z,14.6
2023-01-01T12:37:26.000Z,14.4
2023-01-01T12:40:11.000Z,14.3
2023-01-01T12:42:56.000Z,14.2
2023-01-01T12:45:40.000Z,14.1
2023-01-01T12:48:25.000Z,14.1
2023-01-01T12:51:09.000Z,14
2023-01-01T12:53:54.000Z,14
2023-01-01T12:56:39.000Z,14
2023-01-01T12:59:23.000Z,14.1
2023-01-01T13:00:41.000Z,14
2023-01-01T13:02:08.000Z,14
2023-01-01T13:04:53.000Z,13.9
2023-01-01T13:07:37.000Z,13.9
2023-01-01T13:10:22.000Z,14
2023-01-01T13:13:23.000Z,14.1
2023-01-01T13:16:08.000Z,14
2023-01-01T13:18:52.000Z,14
2023-01-01T13:21:37.000Z,14
2023-01-01T13:27:06.000Z,14.1
2023-01-01T13:28:24.000Z,14.2
2023-01-01T13:29:51.000Z,14.3
2023-01-01T13:32:35.000Z,14.3
2023-01-01T13:35:20.000Z,14.3
2023-01-01T13:38:05.000Z,14.2
2023-01-01T13:40:49.000Z,14.2
2023-01-01T13:43:34.000Z,14.1
2023-01-01T13:46:19.000Z,14
2023-01-01T13:49:03.000Z,14
2023-01-01T13:51:48.000Z,14.1
2023-01-01T13:54:33.000Z,14
2023-01-01T13:55:50.000Z,14
2023-01-01T13:57:17.000Z,14.1
2023-01-01T14:00:02.000Z,14.1
2023-01-01T14:02:47.000Z,14
2023-01-01T14:05:31.000Z,14
2023-01-01T14:08:16.000Z,13.9
2023-01-01T14:11:00.000Z,14
2023-01-01T14:13:45.000Z,13.8
2023-01-01T14:16:30.000Z,13.8
2023-01-01T14:19:14.000Z,13.9
2023-01-01T14:21:59.000Z,13.9
2023-01-01T14:23:17.000Z,13.9
2023-01-01T14:24:44.000Z,13.9
2023-01-01T14:27:28.000Z,13.9
2023-01-01T14:30:13.000Z,13.9
2023-01-01T14:32:58.000Z,13.8
2023-01-01T14:35:42.000Z,13.7
2023-01-01T14:38:27.000Z,13.7
2023-01-01T14:41:11.000Z,13.7
2023-01-01T14:43:56.000Z,13.6
2023-01-01T14:46:41.000Z,13.6
2023-01-01T14:49:25.000Z,13.6
2023-01-01T14:50:43.000Z,13.5
2023-01-01T14:52:10.000Z,13.5
2023-01-01T14:54:55.000Z,13.5
2023-01-01T14:57:39.000Z,13.5
2023-01-01T15:00:24.000Z,13.6
2023-01-01T15:03:09.000Z,13.6
2023-01-01T15:05:53.000Z,13.6
2023-01-01T15:08:38.000Z,13.5
2023-01-01T15:11:23.000Z,13.5
2023-01-01T15:14:07.000Z,13.5
2023-01-01T15:16:52.000Z,13.5
2023-01-01T15:18:10.000Z,13.4
2023-01-01T15:19:36.000Z,13.4
2023-01-01T15:22:21.000Z,13.3
2023-01-01T15:25:06.000Z,13.3
2023-01-01T15:27:50.000Z,13.3
2023-01-01T15:30:35.000Z,13.2
2023-01-01T15:33:20.000Z,13.1
2023-01-01T15:36:04.000Z,13.1
2023-01-01T15:38:49.000Z,13.1
2023-01-01T15:41:34.000Z,13
2023-01-01T15:44:18.000Z,12.9
2023-01-01T15:45:36.000Z,12.8
2023-01-01T15:47:03.000Z,12.8
2023-01-01T15:49:47.000Z,12.8
2023-01-01T15:52:32.000Z,12.9
2023-01-01T15:55:17.000Z,12.9
2023-01-01T15:58:01.000Z,13
2023-01-01T16:00:46.000Z,13.1
2023-01-01T16:03:31.000Z,13.1
2023-01-01T16:06:15.000Z,13.2
2023-01-01T16:09:00.000Z,13.1
2023-01-01T16:11:45.000Z,13.1
2023-01-01T16:13:02.000Z,13.1
2023-01-01T16:14:29.000Z,13.1
2023-01-01T16:17:14.000Z,13.2
2023-01-01T16:19:59.000Z,13.2
2023-01-01T16:22:43.000Z,13.1
2023-01-01T16:25:28.000Z,13.1
2023-01-01T16:28:12.000Z,13.1
2023-01-01T16:30:57.000Z,13.3
2023-01-01T16:33:42.000Z,13.3
2023-01-01T16:36:26.000Z,13.2
2023-01-01T16:39:11.000Z,13.2
2023-01-01T16:40:29.000Z,13.2
2023-01-01T16:41:56.000Z,13.3
2023-01-01T16:44:40.000Z,13.3
2023-01-01T16:47:25.000Z,13.3
2023-01-01T16:50:10.000Z,13.4
2023-01-01T16:52:54.000Z,13.4
2023-01-01T16:55:39.000Z,13.5
2023-01-01T16:58:24.000Z,13.4
2023-01-01T17:01:08.000Z,13.3
2023-01-01T17:03:53.000Z,13.2
2023-01-01T17:06:37.000Z,13.1
2023-01-01T17:07:55.000Z,13
2023-01-01T17:09:22.000Z,12.9
2023-01-01T17:12:07.000Z,12.9
2023-01-01T17:14:51.000Z,12.7
2023-01-01T17:17:36.000Z,12.5
2023-01-01T17:20:21.000Z,12.4
2023-01-01T17:23:05.000Z,12.3
2023-01-01T17:25:50.000Z,12.2
2023-01-01T17:28:35.000Z,12.1
2023-01-01T17:31:19.000Z,11.9
2023-01-01T17:34:04.000Z,11.8
2023-01-01T17:35:22.000Z,11.8
2023-01-01T17:36:48.000Z,11.7
2023-01-01T17:39:33.000Z,11.7
2023-01-01T17:42:18.000Z,11.6
2023-01-01T17:45:02.000Z,11.5
2023-01-01T17:47:47.000Z,11.4
2023-01-01T17:50:32.000Z,11.3
2023-01-01T17:53:16.000Z,11.3
2023-01-01T17:56:01.000Z,11.3
2023-01-01T17:58:46.000Z,11.4
2023-01-01T18:01:30.000Z,11.4
2023-01-01T18:02:48.000Z,11.5
2023-01-01T18:04:15.000Z,11.5
2023-01-01T18:07:00.000Z,11.5
2023-01-01T18:09:44.000Z,11.5
2023-01-01T18:12:29.000Z,11.6
2023-01-01T18:15:13.000Z,11.5
2023-01-01T18:17:58.000Z,11.5
2023-01-01T18:20:43.000Z,11.5
2023-01-01T18:23:27.000Z,11.5
2023-01-01T18:26:12.000Z,11.5
2023-01-01T18:28:57.000Z,11.6
2023-01-01T18:30:15.000Z,11.8
2023-01-01T18:31:41.000Z,11.7
2023-01-01T18:34:26.000Z,11.7
2023-01-01T18:37:11.000Z,11.7
2023-01-01T18:39:55.000Z,11.7
2023-01-01T18:42:40.000Z,11.8
2023-01-01T18:45:24.000Z,11.8
2023-01-01T18:48:09.000Z,11.8
2023-01-01T18:50:54.000Z,11.7
2023-01-01T18:53:38.000Z,11.7
2023-01-01T18:56:23.000Z,11.7
2023-01-01T18:57:41.000Z,11.7
2023-01-01T18:59:08.000Z,11.7
2023-01-01T19:01:52.000Z,11.7
2023-01-01T19:04:37.000Z,11.7
2023-01-01T19:07:22.000Z,11.6
2023-01-01T19:10:06.000Z,11.6
2023-01-01T19:12:51.000Z,11.5
2023-01-01T19:15:36.000Z,11.5
2023-01-01T19:18:20.000Z,11.5
2023-01-01T19:21:05.000Z,11.4
2023-01-01T19:23:49.000Z,11.4
2023-01-01T19:25:07.000Z,11.3
2023-01-01T19:26:34.000Z,11.3
2023-01-01T19:29:19.000Z,11.2
2023-01-01T19:32:03.000Z,11.2
2023-01-01T19:34:48.000Z,11.1
2023-01-01T19:37:33.000Z,11.1
2023-01-01T19:40:17.000Z,11.1
2023-01-01T19:43:02.000Z,11.1
2023-01-01T19:45:47.000Z,11.1
2023-01-01T19:48:31.000Z,11.1
2023-01-01T19:51:16.000Z,11.1
2023-01-01T19:52:34.000Z,11.1
2023-01-01T19:54:01.000Z,11.1
2023-01-01T19:56:45.000Z,11.1
2023-01-01T19:59:30.000Z,11
2023-01-01T20:02:14.000Z,11
2023-01-01T20:04:59.000Z,11
2023-01-01T20:07:44.000Z,11
2023-01-01T20:10:28.000Z,11
2023-01-01T20:13:13.000Z,11
2023-01-01T20:15:58.000Z,11
2023-01-01T20:18:42.000Z,10.9
2023-01-01T20:20:00.000Z,10.9
2023-01-01T20:21:27.000Z,10.9
2023-01-01T20:24:12.000Z,10.9
2023-01-01T20:26:56.000Z,10.9
2023-01-01T20:29:41.000Z,10.9
2023-01-01T20:32:25.000Z,10.9
2023-01-01T20:35:10.000Z,10.9
2023-01-01T20:37:55.000Z,10.9
2023-01-01T20:40:39.000Z,10.8
2023-01-01T20:43:24.000Z,10.8
2023-01-01T20:46:09.000Z,10.7
2023-01-01T20:47:27.000Z,10.7
2023-01-01T20:48:53.000Z,10.7
2023-01-01T20:51:38.000Z,10.7
2023-01-01T20:54:23.000Z,10.6
2023-01-01T20:57:07.000Z,10.6
2023-01-01T20:59:52.000Z,10.7
2023-01-01T21:02:37.000Z,10.7
2023-01-01T21:05:21.000Z,10.7
2023-01-01T21:08:06.000Z,10.8
2023-01-01T21:10:50.000Z,10.8
2023-01-01T21:13:35.000Z,10.9
2023-01-01T21:14:53.000Z,10.9
2023-01-01T21:16:20.000Z,10.9
2023-01-01T21:19:04.000Z,10.9
2023-01-01T21:21:49.000Z,10.8
2023-01-01T21:24:34.000Z,10.9
2023-01-01T21:27:18.000Z,10.8
2023-01-01T21:30:03.000Z,10.8
2023-01-01T21:32:48.000Z,10.8
2023-01-01T21:35:32.000Z,10.8
2023-01-01T21:38:33.000Z,10.7
2023-01-01T21:41:18.000Z,10.7
2023-01-01T21:42:36.000Z,10.7
2023-01-01T21:44:03.000Z,10.7
2023-01-01T21:46:47.000Z,10.7
2023-01-01T21:49:32.000Z,10.7
2023-01-01T21:52:16.000Z,10.7
2023-01-01T21:55:01.000Z,10.6
2023-01-01T21:57:46.000Z,10.5
2023-01-01T22:00:30.000Z,10.5
2023-01-01T22:03:15.000Z,10.6
2023-01-01T22:06:00.000Z,10.5
2023-01-01T22:08:44.000Z,10.5
2023-01-01T22:10:02.000Z,10.6
2023-01-01T22:11:29.000Z,10.6
2023-01-01T22:14:14.000Z,10.6
2023-01-01T22:16:58.000Z,10.5
2023-01-01T22:19:43.000Z,10.6
2023-01-01T22:22:28.000Z,10.7
2023-01-01T22:25:12.000Z,10.7
2023-01-01T22:27:57.000Z,10.7
2023-01-01T22:30:41.000Z,10.7
2023-01-01T22:33:26.000Z,10.7
2023-01-01T22:36:11.000Z,10.7
2023-01-01T22:37:28.000Z,10.8
2023-01-01T22:38:55.000Z,10.8
2023-01-01T22:41:40.000Z,10.8
2023-01-01T22:44:25.000Z,10.9
2023-01-01T22:47:09.000Z,10.9
2023-01-01T22:49:54.000Z,11
2023-01-01T22:52:39.000Z,11
2023-01-01T22:55:23.000Z,11.2
2023-01-01T22:58:08.000Z,11.2
2023-01-01T23:00:52.000Z,11.2
2023-01-01T23:03:37.000Z,11.3
2023-01-01T23:04:55.000Z,11.3
2023-01-01T23:06:22.000Z,11.3
2023-01-01T23:09:06.000Z,11.3
2023-01-01T23:11:51.000Z,11.3
2023-01-01T23:14:36.000Z,11.2
2023-01-01T23:17:20.000Z,11.2
2023-01-01T23:20:05.000Z,11.2
2023-01-01T23:22:50.000Z,11.2
2023-01-01T23:25:34.000Z,11.2
2023-01-01T23:28:19.000Z,11.2
2023-01-01T23:31:04.000Z,11.2
2023-01-01T23:32:21.000Z,11.2
2023-01-01T23:33:48.000Z,11.2
2023-01-01T23:36:33.000Z,11.2
2023-01-01T23:39:17.000Z,11.2
2023-01-01T23:42:02.000Z,11.2
2023-01-01T23:44:47.000Z,11.2
2023-01-01T23:47:31.000Z,11.2
2023-01-01T23:50:16.000Z,11.2
2023-01-01T23:53:01.000Z,11.2
2023-01-01T23:55:45.000Z,11.2
2023-01-01T23:58:30.000Z,11.2
2023-01-01T23:59:48.000Z,11.2
